• Join FlightAware (Why Join?)
  • Login
  • US Flag 
03:30AM EDT


 

Airport Tracker/Info


-or-


 

Live Flight TrackerFlight Track Log ✈ SWA3321 ✈ 08-Apr-2013 ✈ KMHT - KMDW

Flight Track Log - Related Links

Times and Time Zones

All times are in EDT time to prevent confusion due to time zone crossing. See the SWA3321 flight status page for this flight to view local times or setup timezone preferences in your user account.

Time Position Orientation Groundspeed Altitude Reporting Facility
EDT Latitude Longitude Course Direction KTS MPH feet Rate Location/Type
06:40AM 42.9500 -71.4167 12° North 162 186 1,300  Level KA90
06:42AM 43.0353 -71.3919 12° North 219 252 6,100 2,580 Climbing Boston Center
06:43AM 43.0631 -71.4653 297° West 186 214 8,400 2,400 Climbing Boston Center
06:44AM 43.0725 -71.5761 277° West 239 275 11,100 2,580 Climbing Boston Center
06:45AM 43.0794 -71.6897 275° West 309 356 13,600 2,820 Climbing Boston Center
06:46AM 43.0886 -71.8289 275° West 338 389 16,800 2,940 Climbing Boston Center
06:47AM 43.1100 -71.9622 282° West 353 406 19,500 2,580 Climbing Boston Center
06:48AM 43.1397 -72.0958 287° West 359 413 22,000 2,220 Climbing Boston Center
06:49AM 43.1692 -72.2353 286° West 366 421 24,100 1,920 Climbing Boston Center
06:50AM 43.2047 -72.3775 289° West 383 441 25,900 1,800 Climbing Boston Center
06:51AM 43.2361 -72.5114 288° West 407 468 27,700 1,800 Climbing Boston Center
06:52AM 43.2506 -72.6653 277° West 412 474 29,500 1,740 Climbing Boston Center
06:53AM 43.2481 -72.8192 269° West 412 474 31,300 1,740 Climbing Boston Center
06:54AM 43.2453 -73.0017 269° West 402 463 33,400 1,740 Climbing Boston Center
06:55AM 43.2442 -73.1556 269° West 402 463 35,100 1,440 Climbing Boston Center
06:56AM 43.2411 -73.3036 268° West 402 463 36,400 1,140 Climbing Boston Center
06:57AM 43.2356 -73.4661 267° West 396 456 37,400 780 Climbing Boston Center
06:58AM 43.2342 -73.6200 269° West 396 456 38,000 240 Climbing Boston Center
06:59AM 43.2306 -73.7708 268° West 402 463 38,000  Level Boston Center
07:00AM 43.2264 -73.9217 268° West 402 463 38,000  Level Boston Center
07:01AM 43.2225 -74.0697 268° West 402 463 38,000  Level Boston Center
07:02AM 43.2203 -74.2208 269° West 402 463 38,000  Level Boston Center
07:03AM 43.2178 -74.3661 269° West 402 463 38,000  Level Boston Center
07:04AM 43.2131 -74.5169 268° West 402 463 38,000  Level Boston Center
07:05AM 43.2103 -74.6650 269° West 402 463 38,000  Level Boston Center
07:06AM 43.2094 -74.8131 270° West 402 463 38,000  Level Boston Center
07:07AM 43.2042 -74.9581 267° West 402 463 38,000  Level Boston Center
07:08AM 43.1986 -75.1089 267° West 402 463 38,000  Level Boston Center
07:09AM 43.1933 -75.2425 267° West 402 463 38,000  Level Boston Center
07:10AM 43.1875 -75.3933 267° West 402 463 38,000  Level Boston Center
07:11AM 43.1856 -75.5442 269° West 402 463 38,000  Level Boston Center
07:12AM 43.1814 -75.6919 268° West 402 463 38,000  Level Boston Center
07:13AM 43.1750 -75.8397 267° West 402 463 38,000  Level Boston Center
07:14AM 43.1706 -75.9875 268° West 402 463 38,000  Level Boston Center
07:15AM 43.1658 -76.1383 268° West 402 463 38,000  Level Boston Center
07:17AM 43.1033 -76.3914 251° West 391 450 38,000  Level Cleveland Center
07:18AM 43.0583 -76.5336 247° West 397 457 38,000  Level Cleveland Center
07:19AM 43.0131 -76.6703 246° West 397 457 38,000  Level Cleveland Center
07:20AM 42.9658 -76.8181 246° West 405 466 38,000 -60 Level Cleveland Center
07:21AM 42.9203 -76.9567 246° West 405 466 37,900 -600 Descending Cleveland Center
07:22AM 42.8764 -77.0925 246° West 405 466 36,900 -900 Descending Cleveland Center
07:23AM 42.8306 -77.2311 246° West 405 466 36,100 -480 Descending Cleveland Center
07:24AM 42.7864 -77.3692 246° West 405 466 36,000 -60 Descending Cleveland Center
07:25AM 42.7403 -77.5072 246° West 405 466 36,000  Level Cleveland Center
07:26AM 42.7014 -77.6194 245° Southwest 405 466 36,000  Level Cleveland Center
07:27AM 42.6531 -77.7686 246° West 405 466 36,000  Level Cleveland Center
07:28AM 42.6083 -77.9003 245° Southwest 405 466 36,000  Level Cleveland Center
07:29AM 42.5633 -78.0347 246° West 400 460 36,000  Level Cleveland Center
07:30AM 42.5203 -78.1633 246° West 395 455 36,000  Level Cleveland Center
07:31AM 42.4772 -78.2944 246° West 390 449 36,000  Level Cleveland Center
07:32AM 42.4317 -78.4256 245° Southwest 390 449 36,000  Level Cleveland Center
07:33AM 42.3881 -78.5533 245° Southwest 390 449 36,000  Level Cleveland Center
07:34AM 42.3406 -78.6869 244° Southwest 390 449 36,000  Level Cleveland Center
07:35AM 42.2967 -78.8175 246° West 390 449 36,000  Level Cleveland Center
07:36AM 42.2444 -78.9619 244° Southwest 390 449 36,000  Level Cleveland Center
07:37AM 42.1983 -79.0978 245° Southwest 390 449 36,000  Level Cleveland Center
07:38AM 42.1606 -79.2331 249° West 390 449 36,000  Level Cleveland Center
07:39AM 42.1267 -79.3681 251° West 390 449 36,000  Level Cleveland Center
07:40AM 42.1008 -79.5058 256° West 390 449 36,000  Level Cleveland Center
07:41AM 42.0853 -79.6458 262° West 385 443 36,000  Level Cleveland Center
07:42AM 42.0678 -79.7889 261° West 385 443 36,000  Level Cleveland Center
07:43AM 42.0519 -79.9289 261° West 390 449 36,000  Level Cleveland Center
07:44AM 42.0339 -80.0689 260° West 390 449 36,000  Level Cleveland Center
07:45AM 42.0178 -80.2114 261° West 390 449 36,000  Level Cleveland Center
07:46AM 41.9994 -80.3514 260° West 390 449 36,000  Level Cleveland Center
07:47AM 41.9808 -80.4939 260° West 390 449 36,000  Level Cleveland Center
07:48AM 41.9642 -80.6333 261° West 385 443 36,000  Level Cleveland Center
07:49AM 41.9453 -80.7731 260° West 391 450 36,000  Level Cleveland Center
07:50AM 41.9303 -80.9181 262° West 391 450 36,000  Level Cleveland Center
07:51AM 41.9089 -81.0547 258° West 391 450 36,000  Level Cleveland Center
07:52AM 41.8894 -81.1997 260° West 391 450 36,000  Level Cleveland Center
07:53AM 41.8700 -81.3472 260° West 391 450 36,000  Level Cleveland Center
07:54AM 41.8522 -81.4753 259° West 391 450 36,000  Level Cleveland Center
07:55AM 41.8344 -81.6169 260° West 391 450 36,000  Level Cleveland Center
07:56AM 41.8164 -81.7589 260° West 391 450 36,000  Level Cleveland Center
07:57AM 41.7939 -81.9033 258° West 391 450 36,000  Level Cleveland Center
07:58AM 41.7733 -82.0475 259° West 391 450 36,000  Level Cleveland Center
07:59AM 41.7525 -82.2003 260° West 391 450 36,000  Level Cleveland Center
08:00AM 41.7294 -82.3472 258° West 391 450 36,000  Level Cleveland Center
08:01AM 41.7086 -82.4911 259° West 391 450 36,000  Level Cleveland Center
08:02AM 41.6894 -82.6353 260° West 391 450 36,000  Level Cleveland Center
08:03AM 41.6678 -82.7792 259° West 391 450 36,000  Level Cleveland Center
08:04AM 41.6464 -82.9228 259° West 391 450 36,000  Level Cleveland Center
08:05AM 41.6264 -83.0694 260° West 396 456 36,000  Level Cleveland Center
08:06AM 41.6025 -83.2072 257° West 396 456 36,000  Level Cleveland Center
08:07AM 41.5831 -83.3314 258° West 391 450 36,000  Level Cleveland Center
08:08AM 41.5650 -83.4722 260° West 391 450 36,000  Level Cleveland Center
08:09AM 41.5406 -83.6128 257° West 391 450 36,000  Level Cleveland Center
08:11AM 41.4997 -83.9083 260° West 388 447 36,000  Level Chicago Center
08:12AM 41.4764 -84.0494 258° West 389 448 36,000  Level Chicago Center
08:13AM 41.4636 -84.2189 264° West 388 447 36,000 -300 Level Chicago Center
08:14AM 41.4692 -84.3622 273° West 387 445 35,500 -1,500 Descending Chicago Center
08:15AM 41.4747 -84.5056 273° West 389 448 33,000 -2,640 Descending Chicago Center
08:16AM 41.4806 -84.6531 273° West 397 457 30,100 -1,500 Descending Chicago Center
08:17AM 41.4869 -84.8078 273° West 413 475 30,000 -60 Descending Chicago Center
08:18AM 41.4922 -84.9611 273° West 415 478 30,000 -240 Level Chicago Center
08:19AM 41.4981 -85.1144 273° West 414 476 29,600 -1,500 Descending Chicago Center
08:20AM 41.5028 -85.2950 272° West 407 468 26,900 -2,640 Descending Chicago Center
08:21AM 41.5083 -85.4417 273° West 398 458 24,300 -1,860 Descending Chicago Center
08:22AM 41.5125 -85.5814 272° West 382 440 23,200 -1,080 Descending Chicago Center
08:23AM 41.5158 -85.7128 272° West 361 415 22,100 -1,500 Descending Chicago Center
08:24AM 41.5200 -85.8442 272° West 356 410 20,200 -1,920 Descending Chicago Center
08:25AM 41.5236 -85.9719 272° West 349 402 18,200 -2,040 Descending Chicago Center
08:26AM 41.5250 -86.0939 271° West 334 384 16,000 -2,100 Descending Chicago Center
08:27AM 41.5242 -86.2172 270° West 332 382 13,900 -2,340 Descending Chicago Center
08:28AM 41.5247 -86.3667 270° West 336 387 11,300 -1,800 Descending Chicago Center
08:30AM 41.5239 -86.4822 269° West 319 367 10,300 -660 Descending Chicago Center
08:31AM 41.5219 -86.5942 269° West 309 356 10,000 -180 Descending Chicago Center
08:32AM 41.5217 -86.7025 270° West 299 344 10,000 -240 Level Chicago Center
08:33AM 41.5219 -86.8097 270° West 294 338 9,600 -780 Descending Chicago Center
08:34AM 41.5181 -86.9056 267° West 271 312 8,500 -1,200 Descending Chicago Center
08:35AM 41.5183 -87.0172 270° West 258 297 7,200 -1,260 Descending Chicago Center
08:36AM 41.5183 -87.1103 270° West 254 292 6,000 -780 Descending Chicago Center
08:37AM 41.5167 -87.2167 269° West 243 280 5,600 -660 Descending Chicago TRACON
08:38AM 41.5167 -87.3167 270° West 249 287 4,600 -840 Descending Chicago TRACON
08:39AM 41.5139 -87.3817 267° West 245 282 4,100 -360 Descending Chicago Center
08:40AM 41.5125 -87.4697 269° West 243 280 3,900 -120 Descending Chicago Center
08:41AM 41.5106 -87.5692 269° West 234 269 3,900  Level Chicago Center
08:42AM 41.5269 -87.6400 287° West 219 252 3,900  Level Chicago Center
08:43AM 41.5344 -87.7128 278° West 208 239 3,900  Level Chicago Center
08:44AM 41.5422 -87.7861 278° West 204 235 3,900  Level Chicago Center
08:45AM 41.5497 -87.8597 278° West 203 234 3,900  Level Chicago Center
08:46AM 41.5597 -87.9442 279° West 199 229 3,900  Level Chicago Center
08:47AM 41.5694 -87.9983 284° West 169 194 3,900 -540 Level Chicago Center
08:48AM 41.6061 -88.0472 315° West 188 216 2,900 -720 Descending Chicago Center
08:49AM 41.6431 -88.1003 313° West 192 221 2,500 -240 Descending Chicago Center
08:50AM 41.6869 -88.1386 327° Northwest 217 250 2,500  Level Chicago Center
08:51AM 41.7325 -88.0861 41° Northeast 216 249 2,500  Level Chicago Center
08:52AM 41.7883 -88.0233 40° Northeast 218 251 2,500  Level Chicago Center
08:53AM 41.8364 -87.9758 36° Northeast 217 250 2,500  Level Chicago Center
08:54AM 41.8797 -87.9286 39° Northeast 223 257 2,500 -300 Level Chicago Center
08:55AM 41.8833 -87.8833 84° East 163 188 2,100 -300 Descending Chicago TRACON
08:56AM 41.8500 -87.8500 143° Southeast 129 148 2,100 -180 Level Chicago TRACON
08:57AM 41.8333 -87.8167 124° Southeast 119 137 1,800 -540 Descending Chicago TRACON
08:58AM 41.8000 -87.7833 143° Southeast 121 139 1,100 -720 Descending Chicago TRACON